Charleston Air Force Base, SC (29404)

4:22 AM EDT on July 31, 2016 (GMT -0400)
Park Circle | | Change Station

Elev 20 ft 32.89 °N, 79.99 °W | Updated 9 seconds ago

Scattered Clouds
Scattered Clouds
84.3 °F
Feels Like 96 °F
N
1.0
Wind Variable Wind from NW
Gusts 1.0 mph

Today
High -- | Low -- °F
--% Chance of Precip.
Yesterday
High -- | Low -- °F
Precip. -- in
Pressure 30.01 in
Visibility 10.0 miles
Clouds Few 5500 ft
Scattered Clouds 7500 ft
Scattered Clouds 11000 ft
Heat Index 96 °F
Dew Point 79 °F
Humidity 83%
Rainfall 0.00 in
Snow Depth Not available.
6:33 AM 8:19 PM
Waning Crescent, 8% visible
METAR KCHS 310756Z 21006KT 10SM FEW055 SCT075 SCT110 28/24 A3001 RMK AO2 SLP160 T02830244
Pressure 30.01 in
Visibility 10.0 miles
Clouds Few 5500 ft
Scattered Clouds 7500 ft
Scattered Clouds 11000 ft
Heat Index 96 °F
Dew Point 79 °F
Humidity 83%
Rainfall 0.00 in
Snow Depth Not available.
6:33 AM 8:19 PM
Waning Crescent, 8% visible
METAR KCHS 310756Z 21006KT 10SM FEW055 SCT075 SCT110 28/24 A3001 RMK AO2 SLP160 T02830244

10-Day Weather Forecast

Almanac

Astronomy

Jul. 31, 2016 Rise Set
Actual Time
Civil Twilight
Nautical Twilight
Astronomical Twilight
Moon
Length of Visible Light
Length of Day
Tomorrow will be .
, % of the Moon is Illuminated

Today's Extremes

State Highs State Lows

Community

WunderPhotos

Upload Photos

1,928,768 photos uploaded!

WunderBlog® & News

Nearby

Air Quality

  Air Quality AQ Index Pollutant
Not available.

Snow Depth

Station Depth Elevation

Earthquake Activity

City Distance Mag. Time & Date
Minimum magnitude displayed is 2.5.

Coastal Water Temperatures

Place Temperature

Stations

Nearby Weather Stations

Station Location Temp. Windchill Dew Point Humidity Wind Precip. Elev Updated Type
                   

Watches & Warnings

There are currently no watches in effect.